Oasis of the Seas — C6XS7 — position and weather

sailwx.info

Track history (hours):
 
Tides and Currents Weather Stations Pressure Air Temp Water Temp Dewpoint Dewpoint Depression Visibility Wind Speed Wind Dir Waves Ship Positions

Oasis of the Seas

Last reported at 2017-Apr-24 14:00 UTC. Time now 2017-Apr-27 01:31 UTC.
Position N 25°30' W 075°48'.

Length 360 m; draft 9.3 m.

Type: Passenger vessel. MMSI: 311020600.

Wind from 220 at 25 knots

Barometer 1008.0 mb
Air temperature 25.0 ° C
Visibility: greater than 10.8 NM
Water temperature 25.0 ° C

Date/timePositionNaut miles runAvg speedWind from/ knotsBaromVisibWave heightAir tempDewpointWater temp
2017-Apr-24 14:00N 25°30' W 075°48'53 1.2 220 / 251008.010.8 25.0 25.0
2017-Apr-22 18:00N 26°18' W 076°12'17519.4 090 / 121016.010.8 24.0 25.0
2017-Apr-22 09:00N 24°42' W 073°30'29219.4 100 / 161015.010.8 24.0 27.0
2017-Apr-21 18:00N 22°00' W 069°06'10821.5 090 / 181016.010.8 24.0 25.0
2017-Apr-21 13:00N 21°00' W 067°30'7518.7 030 / 151017.010.8 25.0 25.0
2017-Apr-21 09:00N 20°18' W 066°24'22020.0 060 / 221015.010.8 25.0 28.0
2017-Apr-20 22:00N 18°06' W 063°17'1119.1
2017-Apr-20 21:24N 18°00' W 063°07'4 0.4
2017-Apr-20 11:33N 18°00' W 063°03'0 2.1
2017-Apr-20 11:23N 18°00' W 063°03'4 8.2
2017-Apr-20 10:57N 18°00' W 063°07'5 8.9
2017-Apr-20 10:26N 18°00' W 063°12'4 9.1
2017-Apr-20 09:58N 17°60' W 063°17'4 9.1
2017-Apr-20 09:30N 18°00' W 063°21'4 9.1
2017-Apr-20 09:00N 18°00' W 063°26'5 9.0
2017-Apr-20 08:29N 18°00' W 063°31'5 8.7
2017-Apr-20 07:58N 18°01' W 063°35'4 8.5
2017-Apr-20 07:30N 18°01' W 063°40'4 8.7
2017-Apr-20 06:59N 18°01' W 063°44'66 9.1
2017-Apr-19 23:45N 18°13' W 064°53'97 7.0
2017-Apr-19 10:00N 19°06' W 066°18'36120.0 070 / 241016.010.8 25.0 28.0
2017-Apr-18 16:00N 22°30' W 071°36'10717.8 050 / 251018.010.8 25.0 25.0
2017-Apr-18 10:00N 23°30' W 073°12'443 8.5 090 / 271016.010.8 24.0 27.0
2017-Apr-16 06:00N 27°36' W 080°00'3117.7 100 / 221024.010.8 23.0 26.0
2017-Apr-16 04:14N 27°06' W 079°50'521.7
2017-Apr-16 04:00N 27°01' W 079°48'1121.3
2017-Apr-16 03:30N 26°51' W 079°46'2320.5
2017-Apr-16 02:23N 26°28' W 079°47'820.2
2017-Apr-16 02:00N 26°20' W 079°47'1020.4
2017-Apr-16 01:30N 26°10' W 079°48'1020.7
2017-Apr-16 01:00N 26°00' W 079°49'1122.6
2017-Apr-16 00:30N 25°49' W 079°51'1122.7
2017-Apr-16 00:00N 25°38' W 079°54'1122.3
2017-Apr-15 23:30N 25°27' W 079°56'48819.3
2017-Apr-14 22:15N 20°32' W 086°59'313.0
2017-Apr-14 22:01N 20°29' W 086°59'0 0.6
2017-Apr-14 21:28N 20°29' W 086°59'0 0.0
2017-Apr-14 20:52N 20°29' W 086°59'0 0.0
2017-Apr-14 20:28N 20°29' W 086°59'0 0.0
2017-Apr-14 19:58N 20°29' W 086°59'0 0.0
2017-Apr-14 19:28N 20°29' W 086°59'0 0.0
2017-Apr-14 18:58N 20°29' W 086°59'0 0.0
2017-Apr-14 18:28N 20°29' W 086°59'0 0.0
2017-Apr-14 17:58N 20°29' W 086°59'0 0.0
2017-Apr-14 17:28N 20°29' W 086°59'0 0.0
2017-Apr-14 16:58N 20°29' W 086°59'0 0.0
2017-Apr-14 16:28N 20°29' W 086°59'0 0.0
2017-Apr-14 15:58N 20°29' W 086°59'0 0.0
2017-Apr-14 15:28N 20°29' W 086°59'0 0.0
2017-Apr-14 14:58N 20°29' W 086°59'0 0.0
2017-Apr-14 14:28N 20°29' W 086°59'  
Track history (hours):
 
Tides and Currents Weather Stations Pressure Air Temp Water Temp Dewpoint Dewpoint Depression Visibility Wind Speed Wind Dir Waves Ship Positions

Oasis of the Seas

Last reported at 2017-Apr-24 14:00 UTC. Time now 2017-Apr-27 01:31 UTC.
Position N 25°30' W 075°48'.

Length 360 m; draft 9.3 m.

Type: Passenger vessel. MMSI: 311020600.

Wind from 220 at 25 knots

Barometer 1008.0 mb
Air temperature 25.0 ° C
Visibility: greater than 10.8 NM
Water temperature 25.0 ° C

Date/timePositionNaut miles runAvg speedWind from/ knotsBaromVisibWave heightAir tempDewpointWater temp
2017-Apr-24 14:00N 25°30' W 075°48'53 1.2 220 / 251008.010.8 25.0 25.0
2017-Apr-22 18:00N 26°18' W 076°12'17519.4 090 / 121016.010.8 24.0 25.0
2017-Apr-22 09:00N 24°42' W 073°30'29219.4 100 / 161015.010.8 24.0 27.0
2017-Apr-21 18:00N 22°00' W 069°06'10821.5 090 / 181016.010.8 24.0 25.0
2017-Apr-21 13:00N 21°00' W 067°30'7518.7 030 / 151017.010.8 25.0 25.0
2017-Apr-21 09:00N 20°18' W 066°24'22020.0 060 / 221015.010.8 25.0 28.0
2017-Apr-20 22:00N 18°06' W 063°17'1119.1
2017-Apr-20 21:24N 18°00' W 063°07'4 0.4
2017-Apr-20 11:33N 18°00' W 063°03'0 2.1
2017-Apr-20 11:23N 18°00' W 063°03'4 8.2
2017-Apr-20 10:57N 18°00' W 063°07'5 8.9
2017-Apr-20 10:26N 18°00' W 063°12'4 9.1
2017-Apr-20 09:58N 17°60' W 063°17'4 9.1
2017-Apr-20 09:30N 18°00' W 063°21'4 9.1
2017-Apr-20 09:00N 18°00' W 063°26'5 9.0
2017-Apr-20 08:29N 18°00' W 063°31'5 8.7
2017-Apr-20 07:58N 18°01' W 063°35'4 8.5
2017-Apr-20 07:30N 18°01' W 063°40'4 8.7
2017-Apr-20 06:59N 18°01' W 063°44'66 9.1
2017-Apr-19 23:45N 18°13' W 064°53'97 7.0
2017-Apr-19 10:00N 19°06' W 066°18'36120.0 070 / 241016.010.8 25.0 28.0
2017-Apr-18 16:00N 22°30' W 071°36'10717.8 050 / 251018.010.8 25.0 25.0
2017-Apr-18 10:00N 23°30' W 073°12'443 8.5 090 / 271016.010.8 24.0 27.0
2017-Apr-16 06:00N 27°36' W 080°00'3117.7 100 / 221024.010.8 23.0 26.0
2017-Apr-16 04:14N 27°06' W 079°50'521.7
2017-Apr-16 04:00N 27°01' W 079°48'1121.3
2017-Apr-16 03:30N 26°51' W 079°46'2320.5
2017-Apr-16 02:23N 26°28' W 079°47'820.2
2017-Apr-16 02:00N 26°20' W 079°47'1020.4
2017-Apr-16 01:30N 26°10' W 079°48'1020.7
2017-Apr-16 01:00N 26°00' W 079°49'1122.6
2017-Apr-16 00:30N 25°49' W 079°51'1122.7
2017-Apr-16 00:00N 25°38' W 079°54'1122.3
2017-Apr-15 23:30N 25°27' W 079°56'48819.3
2017-Apr-14 22:15N 20°32' W 086°59'313.0
2017-Apr-14 22:01N 20°29' W 086°59'0 0.6
2017-Apr-14 21:28N 20°29' W 086°59'0 0.0
2017-Apr-14 20:52N 20°29' W 086°59'0 0.0
2017-Apr-14 20:28N 20°29' W 086°59'0 0.0
2017-Apr-14 19:58N 20°29' W 086°59'0 0.0
2017-Apr-14 19:28N 20°29' W 086°59'0 0.0
2017-Apr-14 18:58N 20°29' W 086°59'0 0.0
2017-Apr-14 18:28N 20°29' W 086°59'0 0.0
2017-Apr-14 17:58N 20°29' W 086°59'0 0.0
2017-Apr-14 17:28N 20°29' W 086°59'0 0.0
2017-Apr-14 16:58N 20°29' W 086°59'0 0.0
2017-Apr-14 16:28N 20°29' W 086°59'0 0.0
2017-Apr-14 15:58N 20°29' W 086°59'0 0.0
2017-Apr-14 15:28N 20°29' W 086°59'0 0.0
2017-Apr-14 14:58N 20°29' W 086°59'0 0.0
2017-Apr-14 14:28N 20°29' W 086°59'  

Dump ship's entire track history